Terminal Aerodrome Forecast
Issued by NWS

Home | Current Version | Previous Version | Text Only | Print | Product List | Glossary On
Versions: 1 2 3 4 5 6 7 8 9 10 11 12 13 14 15 16 17 18
870
FTUS42 KFFC 220331 AAA
TAFPDK
TAF AMD
KPDK 220331Z 2204/2224 11009KT P6SM SCT060
     FM220600 10009KT P6SM BKN060
     FM220800 10011KT P6SM OVC035
     FM221100 10010KT P6SM VCSH OVC020
     FM221400 10010G20KT P6SM -SHRA OVC012
     FM221800 09012G22KT 5SM -SHRA OVC008=

USA.gov is the U.S. government's official web portal to all federal, state and local government web resources and services.